Time;durP1;ratioP1;P1;durP2;ratioP2;P2;SDS_P1;SDS_P2;PMS_P1;PMS_P2;Temp;Humidity;BMP_temperature;BMP_pressure;BME280_temperature;BME280_humidity;BME280_pressure;Samples;Min_cycle;Max_cycle;Signal;HPM_P1;HPM_P2
2021/12/23 00:00:24;;;;;;;0.60;0.60;;;-3.70;99.90;;;;;;5073534;28;20420;-80
2021/12/23 00:02:52;;;;;;;0.40;0.40;;;-3.60;99.90;;;;;;5073881;28;20459;-88
2021/12/23 00:05:18;;;;;;;0.40;0.40;;;-3.60;99.90;;;;;;5074559;28;20850;-88
2021/12/23 00:07:45;;;;;;;0.50;0.50;;;-3.70;99.90;;;;;;5074182;28;20793;-88
2021/12/23 00:10:12;;;;;;;0.50;0.50;;;-3.60;99.90;;;;;;5073346;28;20456;-81
2021/12/23 00:12:41;;;;;;;0.40;0.40;;;-3.70;99.90;;;;;;5073118;28;20538;-85
2021/12/23 00:15:17;;;;;;;1.03;1.03;;;-3.70;99.90;;;;;;5072885;28;20923;-80
2021/12/23 00:17:57;;;;;;;0.30;0.30;;;-3.70;99.90;;;;;;5072979;28;20416;-85
2021/12/23 00:23:28;;;;;;;0.40;0.40;;;-3.70;99.90;;;;;;5078336;28;20450;-89
2021/12/23 00:26:01;;;;;;;0.40;0.40;;;-3.70;99.90;;;;;;5090623;28;20454;-80
2021/12/23 00:28:29;;;;;;;1.03;1.03;;;-3.70;99.90;;;;;;5073647;28;20406;-84
2021/12/23 00:30:56;;;;;;;0.50;0.50;;;-3.80;99.90;;;;;;5076493;28;20427;-80
2021/12/23 00:33:23;;;;;;;0.40;0.40;;;-3.80;99.90;;;;;;5076805;28;20433;-89
2021/12/23 00:35:53;;;;;;;3.23;2.10;;;-3.80;99.90;;;;;;5077343;28;20477;-88
2021/12/23 00:38:24;;;;;;;0.30;0.30;;;-3.80;99.90;;;;;;5076554;28;20956;-84
2021/12/23 00:40:52;;;;;;;0.40;0.40;;;-3.80;99.90;;;;;;5076744;28;20422;-84
2021/12/23 00:43:19;;;;;;;0.30;0.30;;;-3.80;99.90;;;;;;5076660;28;20538;-85
2021/12/23 00:45:46;;;;;;;0.40;0.40;;;-3.80;99.90;;;;;;5077409;28;20913;-80
2021/12/23 00:48:13;;;;;;;0.93;0.80;;;-3.80;99.90;;;;;;5076352;28;20451;-80
2021/12/23 00:50:40;;;;;;;0.93;0.93;;;-3.80;99.90;;;;;;5076268;28;20449;-80
2021/12/23 00:53:10;;;;;;;0.47;0.47;;;-3.80;99.90;;;;;;5076113;28;20446;-80
2021/12/23 00:55:37;;;;;;;0.40;0.40;;;-3.80;99.90;;;;;;5076915;28;20444;-89
2021/12/23 00:58:04;;;;;;;2.10;0.90;;;-3.80;99.90;;;;;;5076838;28;20482;-87
2021/12/23 01:00:31;;;;;;;0.40;0.40;;;-3.80;99.90;;;;;;5076962;28;20466;-89
2021/12/23 01:03:00;;;;;;;0.40;0.40;;;-3.80;99.90;;;;;;5076711;28;20492;-87
2021/12/23 01:05:28;;;;;;;1.53;1.20;;;-3.80;99.90;;;;;;5076716;28;20451;-87
2021/12/23 01:07:55;;;;;;;0.40;0.40;;;-3.80;99.90;;;;;;5076563;28;20547;-87
2021/12/23 01:10:24;;;;;;;2.10;1.23;;;-3.80;99.90;;;;;;5076751;28;20463;-81
2021/12/23 01:12:59;;;;;;;0.80;0.80;;;-3.80;99.90;;;;;;5075807;28;20469;-80
2021/12/23 01:18:21;;;;;;;0.30;0.30;;;-3.80;99.90;;;;;;5039569;28;20817;-84
2021/12/23 01:20:52;;;;;;;0.97;0.87;;;-3.80;99.90;;;;;;5076216;28;20802;-87
2021/12/23 01:23:21;;;;;;;4.07;1.33;;;-3.80;99.90;;;;;;5076174;28;20451;-84
2021/12/23 01:25:51;;;;;;;1.13;1.13;;;-3.70;99.90;;;;;;5076026;28;20419;-84
2021/12/23 01:28:19;;;;;;;0.50;0.50;;;-3.70;99.90;;;;;;5076161;28;20412;-87
2021/12/23 01:30:46;;;;;;;0.40;0.40;;;-3.70;99.90;;;;;;5076458;28;20449;-87
2021/12/23 01:33:13;;;;;;;0.37;0.37;;;-3.60;99.90;;;;;;5076175;28;20441;-86
2021/12/23 01:35:41;;;;;;;2.03;2.00;;;-3.60;99.90;;;;;;5075612;28;20441;-80
2021/12/23 01:38:09;;;;;;;1.57;1.57;;;-3.60;99.90;;;;;;5075739;28;20399;-87
2021/12/23 01:40:36;;;;;;;0.30;0.30;;;-3.60;99.90;;;;;;5076061;28;20815;-87
2021/12/23 01:43:05;;;;;;;1.50;1.13;;;-3.50;99.90;;;;;;5076108;28;20462;-87
2021/12/23 01:45:34;;;;;;;0.40;0.40;;;-3.50;99.90;;;;;;5076088;28;20547;-87
2021/12/23 01:48:02;;;;;;;1.80;1.70;;;-3.50;99.90;;;;;;5076244;28;20815;-89
2021/12/23 01:50:32;;;;;;;3.00;2.83;;;-3.40;99.90;;;;;;5076456;28;20803;-84
2021/12/23 01:53:00;;;;;;;0.60;0.60;;;-3.40;99.90;;;;;;5076111;28;20440;-89
2021/12/23 01:55:28;;;;;;;0.40;0.40;;;-3.40;99.90;;;;;;5075922;28;20936;-89
2021/12/23 01:57:57;;;;;;;0.30;0.30;;;-3.40;99.90;;;;;;5076070;28;20937;-87
2021/12/23 02:00:27;;;;;;;0.30;0.30;;;-3.40;99.90;;;;;;5075971;28;20453;-88
2021/12/23 02:02:55;;;;;;;1.47;1.37;;;-3.40;99.90;;;;;;5075694;28;20488;-83
2021/12/23 02:05:22;;;;;;;0.40;0.40;;;-3.40;99.90;;;;;;5075160;28;20901;-80
2021/12/23 02:07:49;;;;;;;0.37;0.37;;;-3.40;99.90;;;;;;5075578;28;20424;-80
2021/12/23 02:10:16;;;;;;;0.40;0.40;;;-3.40;99.90;;;;;;5097552;28;20443;-79
2021/12/23 02:12:44;;;;;;;0.30;0.30;;;-3.40;99.90;;;;;;5077803;28;20464;-80
2021/12/23 02:15:11;;;;;;;0.30;0.30;;;-3.50;99.90;;;;;;5074418;28;20429;-80
2021/12/23 02:17:39;;;;;;;1.00;0.90;;;-3.50;99.90;;;;;;5075404;28;20570;-89
2021/12/23 02:20:10;;;;;;;0.30;0.30;;;-3.40;99.90;;;;;;5075510;28;20452;-89
2021/12/23 02:22:37;;;;;;;0.40;0.40;;;-3.40;99.90;;;;;;5075093;28;20484;-80
2021/12/23 02:25:07;;;;;;;0.40;0.40;;;-3.40;99.90;;;;;;5074469;28;20444;-80
2021/12/23 02:27:34;;;;;;;1.33;0.80;;;-3.40;99.90;;;;;;5074092;28;20763;-80
2021/12/23 02:30:01;;;;;;;0.40;0.40;;;-3.40;99.90;;;;;;5074861;28;20415;-87
2021/12/23 02:32:28;;;;;;;0.40;0.40;;;-3.40;99.90;;;;;;5074982;28;20431;-87
2021/12/23 02:34:55;;;;;;;0.40;0.40;;;-3.50;99.90;;;;;;5075258;28;20960;-86
2021/12/23 02:37:23;;;;;;;0.50;0.50;;;-3.50;99.90;;;;;;5075075;28;20462;-87
2021/12/23 02:39:49;;;;;;;0.40;0.40;;;-3.40;99.90;;;;;;5074954;28;20420;-87
2021/12/23 02:42:16;;;;;;;0.30;0.30;;;-3.40;99.90;;;;;;5074211;28;20480;-84
2021/12/23 02:44:43;;;;;;;0.30;0.30;;;-3.40;99.90;;;;;;5074162;28;20441;-80
2021/12/23 02:47:10;;;;;;;1.53;0.60;;;-3.50;99.90;;;;;;5074647;28;20848;-84
2021/12/23 02:49:37;;;;;;;0.40;0.40;;;-3.50;99.90;;;;;;5074850;28;20419;-89
2021/12/23 02:52:04;;;;;;;0.30;0.30;;;-3.50;99.90;;;;;;5073431;28;20431;-80
2021/12/23 02:54:32;;;;;;;1.57;1.00;;;-3.50;99.90;;;;;;5073890;28;20408;-84
2021/12/23 02:57:00;;;;;;;0.40;0.40;;;-3.40;99.90;;;;;;5074169;28;20428;-88
2021/12/23 02:59:27;;;;;;;0.90;0.90;;;-3.50;99.90;;;;;;5074374;28;20433;-84
2021/12/23 03:01:54;;;;;;;0.30;0.30;;;-3.50;99.90;;;;;;5073616;28;20935;-84
2021/12/23 03:04:22;;;;;;;0.60;0.60;;;-3.40;99.90;;;;;;5073895;28;20420;-80
2021/12/23 03:06:49;;;;;;;0.97;0.97;;;-3.40;99.90;;;;;;5073700;28;20427;-80
2021/12/23 03:09:15;;;;;;;4.50;1.27;;;-3.40;99.90;;;;;;5073849;28;20456;-84
2021/12/23 03:11:43;;;;;;;0.30;0.30;;;-3.30;99.90;;;;;;5073582;28;20945;-84
2021/12/23 03:14:11;;;;;;;0.50;0.50;;;-3.30;99.90;;;;;;5074329;28;20426;-87
2021/12/23 03:16:38;;;;;;;0.30;0.30;;;-3.30;99.90;;;;;;5074655;28;20423;-88
2021/12/23 03:19:06;;;;;;;1.03;1.03;;;-3.30;99.90;;;;;;5074585;28;20445;-89
2021/12/23 03:21:34;;;;;;;1.60;1.50;;;-3.20;99.90;;;;;;5074225;28;20431;-89
2021/12/23 03:24:01;;;;;;;0.50;0.50;;;-3.20;99.90;;;;;;5073610;28;20996;-84
2021/12/23 03:26:28;;;;;;;0.40;0.40;;;-3.30;99.90;;;;;;5074236;28;20421;-84
2021/12/23 03:28:56;;;;;;;0.50;0.50;;;-3.20;99.90;;;;;;5073819;28;20444;-86
2021/12/23 03:31:23;;;;;;;1.07;1.07;;;-3.30;99.90;;;;;;5074328;28;20464;-87
2021/12/23 03:33:50;;;;;;;0.40;0.40;;;-3.30;99.90;;;;;;5073802;28;20895;-84
2021/12/23 03:36:17;;;;;;;0.37;0.37;;;-3.20;99.90;;;;;;5073251;28;20484;-84
2021/12/23 03:38:43;;;;;;;0.40;0.40;;;-3.20;99.90;;;;;;5074209;28;20460;-89
2021/12/23 03:41:10;;;;;;;0.30;0.30;;;-3.20;99.90;;;;;;5074203;28;20801;-84
2021/12/23 03:43:37;;;;;;;0.40;0.40;;;-3.20;99.90;;;;;;5073036;28;20982;-83
2021/12/23 03:46:05;;;;;;;0.30;0.30;;;-3.20;99.90;;;;;;5073728;28;20412;-87
2021/12/23 03:48:32;;;;;;;1.13;1.13;;;-3.20;99.90;;;;;;5074338;28;20453;-89
2021/12/23 03:50:59;;;;;;;0.30;0.30;;;-3.10;99.90;;;;;;5074118;28;20433;-88
2021/12/23 03:53:25;;;;;;;0.40;0.40;;;-3.10;99.90;;;;;;5076167;28;20448;-86
2021/12/23 03:55:52;;;;;;;1.10;0.63;;;-3.10;99.90;;;;;;5080072;28;20415;-83
2021/12/23 03:58:20;;;;;;;0.40;0.40;;;-3.10;99.90;;;;;;5094840;28;20418;-88
2021/12/23 04:00:48;;;;;;;0.40;0.40;;;-3.00;99.90;;;;;;5076563;28;20423;-87
2021/12/23 04:03:16;;;;;;;0.30;0.30;;;-3.00;99.90;;;;;;5074264;28;20479;-87
2021/12/23 04:05:43;;;;;;;0.40;0.40;;;-3.00;99.90;;;;;;5078099;28;20453;-87
2021/12/23 04:08:09;;;;;;;1.37;0.90;;;-3.00;99.90;;;;;;5078009;28;20442;-87
2021/12/23 04:10:37;;;;;;;0.47;0.47;;;-3.00;99.90;;;;;;5077918;28;20455;-87
2021/12/23 04:13:04;;;;;;;0.30;0.30;;;-3.00;99.90;;;;;;5077667;28;20431;-88
2021/12/23 04:15:31;;;;;;;0.60;0.60;;;-3.00;99.90;;;;;;5077421;28;20419;-80
2021/12/23 04:17:58;;;;;;;0.40;0.40;;;-3.00;99.90;;;;;;5077581;28;20441;-88
2021/12/23 04:20:33;;;;;;;0.30;0.30;;;-2.90;99.90;;;;;;5077614;28;20415;-87
2021/12/23 04:23:02;;;;;;;0.57;0.57;;;-2.90;99.90;;;;;;5077561;28;20537;-87
2021/12/23 04:25:30;;;;;;;0.30;0.30;;;-2.90;99.90;;;;;;5077150;28;20452;-87
2021/12/23 04:28:02;;;;;;;0.33;0.33;;;-2.90;99.90;;;;;;5077094;28;20408;-83
2021/12/23 04:30:29;;;;;;;0.30;0.30;;;-2.90;99.90;;;;;;5076713;28;20436;-79
2021/12/23 04:32:56;;;;;;;0.40;0.40;;;-2.80;99.90;;;;;;5076263;28;20971;-83
2021/12/23 04:35:23;;;;;;;0.30;0.30;;;-2.80;99.90;;;;;;5076708;28;20432;-83
2021/12/23 04:37:51;;;;;;;0.40;0.40;;;-2.70;99.90;;;;;;5077667;28;20447;-88
2021/12/23 04:40:18;;;;;;;1.43;1.33;;;-2.70;99.90;;;;;;5077446;28;20910;-88
2021/12/23 04:42:46;;;;;;;0.70;0.70;;;-2.70;99.90;;;;;;5077051;28;20550;-88
2021/12/23 04:45:13;;;;;;;0.30;0.30;;;-2.60;99.90;;;;;;5077192;28;20423;-80
2021/12/23 04:47:40;;;;;;;0.30;0.30;;;-2.60;99.90;;;;;;5076141;28;20445;-87
2021/12/23 04:50:09;;;;;;;0.30;0.30;;;-2.70;99.90;;;;;;5077272;28;20428;-87
2021/12/23 04:52:37;;;;;;;0.40;0.40;;;-2.70;99.90;;;;;;5076859;28;20459;-83
2021/12/23 04:55:07;;;;;;;0.73;0.73;;;-2.70;99.90;;;;;;5076800;28;20427;-88
2021/12/23 04:57:34;;;;;;;0.30;0.30;;;-2.70;99.90;;;;;;5076692;28;20796;-80
2021/12/23 05:00:01;;;;;;;0.37;0.37;;;-2.70;99.90;;;;;;5076477;28;20437;-88
2021/12/23 05:02:27;;;;;;;0.30;0.30;;;-2.70;99.90;;;;;;5076072;28;20439;-80
2021/12/23 05:04:54;;;;;;;0.87;0.87;;;-2.70;99.90;;;;;;5075885;28;20441;-83
2021/12/23 05:07:21;;;;;;;0.30;0.30;;;-2.70;99.90;;;;;;5076044;28;20423;-83
2021/12/23 05:09:48;;;;;;;0.30;0.30;;;-2.70;99.90;;;;;;5075825;28;20407;-83
2021/12/23 05:12:16;;;;;;;0.40;0.40;;;-2.70;99.90;;;;;;5076077;28;20518;-86
2021/12/23 05:14:43;;;;;;;0.50;0.50;;;-2.70;99.90;;;;;;5076218;28;20431;-86
2021/12/23 05:17:10;;;;;;;0.30;0.30;;;-2.70;99.90;;;;;;5076180;28;20453;-83
2021/12/23 05:19:37;;;;;;;0.40;0.40;;;-2.70;99.90;;;;;;5076055;28;20455;-86
2021/12/23 05:22:04;;;;;;;2.80;2.63;;;-2.80;99.90;;;;;;5075418;28;20431;-80
2021/12/23 05:24:32;;;;;;;0.30;0.30;;;-2.80;99.90;;;;;;5075391;28;20487;-83
2021/12/23 05:26:59;;;;;;;0.40;0.40;;;-2.80;99.90;;;;;;5075331;28;20427;-80
2021/12/23 05:29:27;;;;;;;1.37;1.27;;;-2.90;99.90;;;;;;5076153;28;20449;-86
2021/12/23 05:31:54;;;;;;;0.60;0.60;;;-3.00;99.90;;;;;;5076249;28;20444;-87
2021/12/23 05:34:20;;;;;;;0.30;0.30;;;-3.00;99.90;;;;;;5076528;28;20412;-88
2021/12/23 05:36:47;;;;;;;0.30;0.30;;;-3.00;99.90;;;;;;5076092;28;20476;-88
2021/12/23 05:39:14;;;;;;;0.30;0.30;;;-3.00;99.90;;;;;;5075652;28;20943;-84
2021/12/23 05:41:41;;;;;;;0.40;0.40;;;-3.10;99.90;;;;;;5076976;28;20443;-84
2021/12/23 05:44:08;;;;;;;0.37;0.37;;;-3.10;99.90;;;;;;5088902;28;20467;-84
2021/12/23 05:46:37;;;;;;;0.30;0.30;;;-3.10;99.90;;;;;;5089888;28;20418;-83
2021/12/23 05:49:04;;;;;;;0.30;0.30;;;-3.10;99.90;;;;;;5076754;28;20424;-87
2021/12/23 05:51:31;;;;;;;0.30;0.30;;;-3.20;99.90;;;;;;5075939;28;20476;-87
2021/12/23 05:53:58;;;;;;;1.13;1.10;;;-3.20;99.90;;;;;;5075786;28;20452;-84
2021/12/23 05:56:25;;;;;;;0.40;0.40;;;-3.20;99.90;;;;;;5075241;28;20452;-84
2021/12/23 05:58:51;;;;;;;0.40;0.40;;;-3.20;99.90;;;;;;5075058;28;20423;-80
2021/12/23 06:01:18;;;;;;;0.40;0.40;;;-3.20;99.90;;;;;;5075249;28;20496;-89
2021/12/23 06:03:46;;;;;;;4.03;2.30;;;-3.20;99.90;;;;;;5074958;28;20480;-87
2021/12/23 06:06:14;;;;;;;0.60;0.60;;;-3.20;99.90;;;;;;5075397;28;20449;-79
2021/12/23 06:08:41;;;;;;;0.30;0.30;;;-3.20;99.90;;;;;;5074938;28;20448;-84
2021/12/23 06:11:08;;;;;;;0.93;0.93;;;-3.30;99.90;;;;;;5074797;28;20960;-79
2021/12/23 06:13:35;;;;;;;0.30;0.30;;;-3.20;99.90;;;;;;5074681;28;20982;-84
2021/12/23 06:16:02;;;;;;;0.73;0.73;;;-3.20;99.90;;;;;;5074920;28;20449;-83
2021/12/23 06:18:29;;;;;;;0.50;0.50;;;-3.20;99.90;;;;;;5075032;28;20404;-84
2021/12/23 06:20:57;;;;;;;0.30;0.30;;;-3.20;99.90;;;;;;5075542;28;20452;-89
2021/12/23 06:23:25;;;;;;;0.30;0.30;;;-3.10;99.90;;;;;;5075221;28;20475;-88
2021/12/23 06:25:52;;;;;;;0.30;0.30;;;-3.10;99.90;;;;;;5075962;28;20428;-89
2021/12/23 06:28:19;;;;;;;0.30;0.30;;;-3.00;99.90;;;;;;5074500;28;20430;-88
2021/12/23 06:30:46;;;;;;;0.30;0.30;;;-3.00;99.90;;;;;;5074781;28;20449;-88
2021/12/23 06:33:12;;;;;;;0.33;0.33;;;-2.90;99.90;;;;;;5074485;28;20419;-81
2021/12/23 06:35:39;;;;;;;0.40;0.40;;;-2.80;99.90;;;;;;5074105;28;20495;-81
2021/12/23 06:38:09;;;;;;;0.30;0.30;;;-2.70;99.90;;;;;;5075000;28;20500;-88
2021/12/23 06:40:37;;;;;;;0.93;0.93;;;-2.70;99.90;;;;;;5075220;28;20436;-80
2021/12/23 06:43:04;;;;;;;0.40;0.40;;;-2.70;99.90;;;;;;5074028;28;20435;-80
2021/12/23 06:45:31;;;;;;;0.30;0.30;;;-2.60;99.90;;;;;;5074129;28;20431;-80
2021/12/23 06:47:58;;;;;;;0.30;0.30;;;-2.60;99.90;;;;;;5074127;28;20468;-83
2021/12/23 06:50:25;;;;;;;0.40;0.40;;;-2.60;99.90;;;;;;5076428;28;20922;-79
2021/12/23 06:52:52;;;;;;;0.40;0.40;;;-2.50;99.90;;;;;;5075284;28;20446;-88
2021/12/23 06:55:20;;;;;;;0.30;0.30;;;-2.50;99.90;;;;;;5075415;28;20448;-88
2021/12/23 06:57:52;;;;;;;0.30;0.30;;;-2.50;99.90;;;;;;5074680;28;20481;-87
2021/12/23 07:00:19;;;;;;;0.40;0.30;;;-2.50;99.90;;;;;;5074922;28;20438;-87
2021/12/23 07:02:46;;;;;;;0.53;0.53;;;-2.50;99.90;;;;;;5074783;28;20473;-87
2021/12/23 07:05:14;;;;;;;0.30;0.30;;;-2.50;99.90;;;;;;5073958;28;20455;-87
2021/12/23 07:07:51;;;;;;;0.40;0.30;;;-2.50;99.90;;;;;;5074897;28;20440;-87
2021/12/23 07:10:18;;;;;;;0.33;0.33;;;-2.60;99.90;;;;;;5074787;28;20419;-83
2021/12/23 07:12:46;;;;;;;0.30;0.30;;;-2.60;99.90;;;;;;5074423;28;20476;-88
2021/12/23 07:15:12;;;;;;;0.80;0.77;;;-2.60;99.90;;;;;;5074602;28;20426;-88
2021/12/23 07:17:40;;;;;;;0.30;0.30;;;-2.60;99.90;;;;;;5074428;28;20461;-88
2021/12/23 07:20:07;;;;;;;0.30;0.30;;;-2.60;99.90;;;;;;5074204;28;20785;-80
2021/12/23 07:22:34;;;;;;;0.30;0.30;;;-2.50;99.90;;;;;;5073536;28;20472;-83
2021/12/23 07:25:01;;;;;;;0.30;0.30;;;-2.50;99.90;;;;;;5074408;28;20471;-84
2021/12/23 07:27:28;;;;;;;0.40;0.40;;;-2.50;99.90;;;;;;5073758;28;20788;-83
2021/12/23 07:29:56;;;;;;;0.40;0.40;;;-2.50;99.90;;;;;;5074818;28;20766;-80
2021/12/23 07:32:23;;;;;;;0.30;0.30;;;-2.50;99.90;;;;;;5095397;28;20465;-79
2021/12/23 07:34:49;;;;;;;0.30;0.30;;;-2.50;99.90;;;;;;5077952;28;20396;-79
2021/12/23 07:37:17;;;;;;;0.80;0.80;;;-2.50;99.90;;;;;;5073431;28;20465;-80
2021/12/23 07:39:43;;;;;;;0.60;0.60;;;-2.50;99.90;;;;;;5073198;28;20449;-79
2021/12/23 07:42:14;;;;;;;2.57;0.93;;;-2.40;99.90;;;;;;5073250;28;20444;-80
2021/12/23 07:44:42;;;;;;;0.83;0.67;;;-2.40;99.90;;;;;;5073296;28;20469;-80
2021/12/23 07:47:10;;;;;;;0.30;0.30;;;-2.30;99.90;;;;;;5073450;28;20446;-83
2021/12/23 07:49:37;;;;;;;0.40;0.40;;;-2.20;99.90;;;;;;5073349;28;20411;-83
2021/12/23 07:52:06;;;;;;;0.30;0.30;;;-2.10;99.90;;;;;;5073369;28;20968;-86
2021/12/23 07:54:33;;;;;;;1.37;1.37;;;-2.10;99.90;;;;;;5073937;28;20408;-87
2021/12/23 07:56:59;;;;;;;0.30;0.30;;;-2.10;99.90;;;;;;5074193;28;20758;-83
2021/12/23 07:59:28;;;;;;;0.40;0.40;;;-2.00;99.90;;;;;;5073386;28;20432;-80
2021/12/23 08:01:56;;;;;;;0.30;0.30;;;-2.00;99.90;;;;;;5079130;28;20468;-78
2021/12/23 08:04:24;;;;;;;1.53;1.43;;;-2.00;99.90;;;;;;5079003;28;20496;-79
2021/12/23 08:06:55;;;;;;;1.13;0.73;;;-1.90;99.90;;;;;;5072874;28;20947;-80
2021/12/23 08:09:22;;;;;;;0.30;0.30;;;-1.90;99.90;;;;;;5073100;28;20403;-80
2021/12/23 08:11:49;;;;;;;0.30;0.30;;;-1.80;99.90;;;;;;5072916;28;20451;-80
2021/12/23 08:14:16;;;;;;;0.97;0.97;;;-1.70;99.90;;;;;;5073024;28;20415;-80
2021/12/23 08:16:43;;;;;;;0.60;0.60;;;-1.70;99.90;;;;;;5072710;28;20911;-80
2021/12/23 08:19:10;;;;;;;0.30;0.30;;;-1.50;99.90;;;;;;5072944;28;20444;-79
2021/12/23 08:21:38;;;;;;;0.30;0.30;;;-1.40;99.90;;;;;;5072489;28;20805;-79
2021/12/23 08:24:05;;;;;;;0.30;0.30;;;-1.20;99.90;;;;;;5072857;28;20501;-79
2021/12/23 08:26:40;;;;;;;0.30;0.30;;;-1.00;99.90;;;;;;5073311;28;20440;-85
2021/12/23 08:29:07;;;;;;;0.30;0.30;;;-0.80;99.90;;;;;;5073261;28;20400;-79
2021/12/23 08:31:34;;;;;;;1.63;0.97;;;-0.70;99.90;;;;;;5072754;28;20432;-79
2021/12/23 08:34:01;;;;;;;1.23;1.10;;;-0.60;99.90;;;;;;5072514;28;20918;-79
2021/12/23 08:36:29;;;;;;;0.30;0.30;;;-0.50;99.90;;;;;;5072877;28;20991;-86
2021/12/23 08:38:58;;;;;;;0.30;0.30;;;-0.50;99.90;;;;;;5073189;28;20510;-80
2021/12/23 08:41:25;;;;;;;0.97;0.87;;;-0.50;99.90;;;;;;5072407;28;20475;-80
2021/12/23 08:43:52;;;;;;;0.30;0.30;;;-0.50;99.90;;;;;;5072576;28;20452;-86
2021/12/23 08:46:19;;;;;;;0.30;0.30;;;-0.40;99.90;;;;;;5073370;28;20506;-86
2021/12/23 08:48:45;;;;;;;0.30;0.30;;;-0.40;99.90;;;;;;5072927;28;20433;-85
2021/12/23 08:51:12;;;;;;;0.87;0.87;;;-0.40;99.90;;;;;;5075322;28;20468;-86
2021/12/23 08:53:39;;;;;;;0.90;0.90;;;-0.30;99.90;;;;;;5076883;28;20471;-87
2021/12/23 08:56:08;;;;;;;1.10;1.10;;;-0.30;99.90;;;;;;5076940;28;20415;-86
2021/12/23 08:58:36;;;;;;;0.30;0.30;;;-0.20;99.90;;;;;;5076738;28;20959;-86
2021/12/23 09:01:04;;;;;;;0.50;0.50;;;-0.10;99.90;;;;;;5076491;28;20763;-80
2021/12/23 09:03:32;;;;;;;0.30;0.30;;;0.00;99.90;;;;;;5076126;28;20554;-78
2021/12/23 09:06:00;;;;;;;0.40;0.40;;;0.10;99.90;;;;;;5075607;28;20516;-78
2021/12/23 09:08:27;;;;;;;0.30;0.27;;;0.20;99.90;;;;;;5075994;28;20427;-86
2021/12/23 09:10:55;;;;;;;0.30;0.30;;;0.40;99.90;;;;;;5076513;28;20790;-85
2021/12/23 09:13:23;;;;;;;0.40;0.40;;;0.60;99.90;;;;;;5076089;28;20561;-80
2021/12/23 09:15:51;;;;;;;0.40;0.40;;;0.70;99.90;;;;;;5075879;28;20449;-80
2021/12/23 09:18:19;;;;;;;0.53;0.53;;;0.80;99.90;;;;;;5075486;28;20959;-80
2021/12/23 09:20:45;;;;;;;0.77;0.73;;;0.80;99.90;;;;;;5075714;28;20453;-85
2021/12/23 09:23:12;;;;;;;0.40;0.40;;;0.90;99.90;;;;;;5076018;28;20460;-85
2021/12/23 09:25:39;;;;;;;0.30;0.30;;;0.90;99.90;;;;;;5075853;28;20476;-85
2021/12/23 09:28:20;;;;;;;0.30;0.30;;;0.90;99.90;;;;;;5075852;28;20453;-85
2021/12/23 09:33:33;;;;;;;0.30;0.30;;;1.00;99.90;;;;;;5075651;28;20432;-80
2021/12/23 09:36:00;;;;;;;0.50;0.50;;;1.10;99.90;;;;;;5075277;28;20480;-78
2021/12/23 09:38:27;;;;;;;0.30;0.30;;;1.20;99.90;;;;;;5075428;28;20429;-77
2021/12/23 09:40:58;;;;;;;0.73;0.73;;;1.30;99.90;;;;;;5075059;28;20921;-77
2021/12/23 09:43:27;;;;;;;0.43;0.43;;;1.40;99.90;;;;;;5075125;28;20429;-77
2021/12/23 09:45:56;;;;;;;0.60;0.43;;;1.50;99.90;;;;;;5075535;28;20913;-83
2021/12/23 09:48:23;;;;;;;0.30;0.30;;;1.70;99.90;;;;;;5076441;28;20456;-77
2021/12/23 09:50:51;;;;;;;0.50;0.50;;;1.70;99.90;;;;;;5075445;28;20458;-83
2021/12/23 09:53:22;;;;;;;0.83;0.50;;;1.80;99.90;;;;;;5075208;28;20899;-83
2021/12/23 09:55:50;;;;;;;0.30;0.20;;;2.00;99.90;;;;;;5075445;28;20433;-83
2021/12/23 09:58:17;;;;;;;0.57;0.57;;;2.10;99.90;;;;;;5075304;28;20429;-83
2021/12/23 10:00:45;;;;;;;0.30;0.30;;;2.30;99.90;;;;;;5076185;28;20417;-83
2021/12/23 10:03:14;;;;;;;0.67;0.67;;;2.40;99.90;;;;;;5075199;28;20507;-83
2021/12/23 10:05:41;;;;;;;0.30;0.30;;;2.50;99.90;;;;;;5078213;28;20469;-83
2021/12/23 10:08:11;;;;;;;0.30;0.30;;;2.60;99.90;;;;;;5075081;28;20436;-83
2021/12/23 10:10:42;;;;;;;0.30;0.30;;;2.70;99.90;;;;;;5075031;28;20481;-83
2021/12/23 10:33:13;;;;;;;0.30;0.23;;;3.70;99.90;;;;;;5074342;28;20483;-83
2021/12/23 10:38:31;;;;;;;0.63;0.63;;;3.70;99.90;;;;;;5074524;28;20400;-83
2021/12/23 10:41:00;;;;;;;0.30;0.20;;;3.80;99.90;;;;;;5075095;28;20441;-83
2021/12/23 10:43:30;;;;;;;0.30;0.30;;;3.80;99.90;;;;;;5074544;28;20429;-83
2021/12/23 10:46:00;;;;;;;0.30;0.30;;;3.90;99.90;;;;;;5074412;28;20461;-83
2021/12/23 10:48:30;;;;;;;0.30;0.20;;;3.90;99.90;;;;;;5074138;28;20912;-83
2021/12/23 10:51:04;;;;;;;0.30;0.20;;;3.90;99.90;;;;;;5074127;28;20440;-82
2021/12/23 10:53:49;;;;;;;0.83;0.50;;;3.90;99.90;;;;;;5074340;28;20498;-83
2021/12/23 10:59:09;;;;;;;0.30;0.30;;;4.00;99.90;;;;;;5074186;28;20908;-83
2021/12/23 11:01:40;;;;;;;0.30;0.30;;;4.10;99.90;;;;;;5073741;28;20455;-83
2021/12/23 11:04:08;;;;;;;0.60;0.60;;;4.20;99.90;;;;;;5074080;28;20432;-83
2021/12/23 11:06:43;;;;;;;0.40;0.30;;;4.20;99.90;;;;;;5073709;28;20530;-83
2021/12/23 11:09:34;;;;;;;0.30;0.20;;;4.20;99.90;;;;;;5074006;28;20769;-83
2021/12/23 11:29:15;;;;;;;0.30;0.30;;;4.40;99.90;;;;;;5073643;28;20438;-84
2021/12/23 11:37:26;;;;;;;0.30;0.20;;;4.20;99.90;;;;;;5074761;28;20513;-84
2021/12/23 11:40:08;;;;;;;0.30;0.30;;;4.30;99.90;;;;;;5074849;28;20841;-83
2021/12/23 11:42:50;;;;;;;0.30;0.20;;;4.40;99.90;;;;;;5075556;28;20500;-85
2021/12/23 11:45:17;;;;;;;0.30;0.30;;;4.40;99.90;;;;;;5075540;28;20472;-84
2021/12/23 11:47:45;;;;;;;0.40;0.30;;;4.50;99.90;;;;;;5074940;28;20779;-85
2021/12/23 11:50:19;;;;;;;0.40;0.30;;;4.60;99.90;;;;;;5075389;28;20940;-84
2021/12/23 11:52:46;;;;;;;0.30;0.20;;;4.60;99.90;;;;;;5075866;28;20468;-84
2021/12/23 11:55:15;;;;;;;0.90;0.40;;;4.70;99.90;;;;;;5073775;28;20837;-84
2021/12/23 11:57:43;;;;;;;0.30;0.30;;;4.80;99.90;;;;;;5073790;28;20807;-84
2021/12/23 12:00:18;;;;;;;0.30;0.20;;;4.90;99.90;;;;;;5073803;28;20506;-84
2021/12/23 12:02:58;;;;;;;0.43;0.43;;;5.10;99.90;;;;;;5073808;28;20465;-84
2021/12/23 12:05:24;;;;;;;0.50;0.50;;;5.20;99.90;;;;;;5073544;28;20469;-84
2021/12/23 12:08:05;;;;;;;0.30;0.30;;;5.30;99.90;;;;;;5074852;28;20437;-84
2021/12/23 12:10:34;;;;;;;0.30;0.30;;;5.40;99.90;;;;;;5073496;28;20409;-84
2021/12/23 12:13:03;;;;;;;1.90;0.50;;;5.50;99.90;;;;;;5073163;28;20475;-84
2021/12/23 12:15:47;;;;;;;0.30;0.30;;;5.50;99.90;;;;;;5073092;28;20920;-84
2021/12/23 12:18:15;;;;;;;0.50;0.50;;;5.50;99.90;;;;;;5073350;28;20444;-88
2021/12/23 12:20:46;;;;;;;0.40;0.30;;;5.50;99.90;;;;;;5073658;28;20429;-86
2021/12/23 12:23:14;;;;;;;0.60;0.60;;;5.60;99.90;;;;;;5073729;28;20535;-84
2021/12/23 12:25:56;;;;;;;0.30;0.20;;;5.60;99.90;;;;;;5074735;28;20573;-85
2021/12/23 12:28:28;;;;;;;0.30;0.30;;;5.50;99.90;;;;;;5077221;28;20441;-84
2021/12/23 12:30:58;;;;;;;0.30;0.30;;;5.50;99.90;;;;;;5076965;28;20797;-84
2021/12/23 12:33:42;;;;;;;0.30;0.20;;;5.50;99.90;;;;;;5077371;28;20472;-84
2021/12/23 12:36:12;;;;;;;0.30;0.30;;;5.30;99.90;;;;;;5076679;28;20996;-84
2021/12/23 12:38:42;;;;;;;0.30;0.30;;;5.40;99.90;;;;;;5077043;28;20432;-83
2021/12/23 12:41:12;;;;;;;0.57;0.57;;;5.30;99.90;;;;;;5076671;28;20468;-84
2021/12/23 12:44:08;;;;;;;0.30;0.20;;;5.40;99.90;;;;;;5077035;28;20429;-84
2021/12/23 12:46:52;;;;;;;0.50;0.50;;;5.40;99.90;;;;;;5067076;28;20488;-84
2021/12/23 12:49:24;;;;;;;1.57;1.47;;;5.40;99.90;;;;;;5076934;28;20440;-84
2021/12/23 12:51:53;;;;;;;0.33;0.30;;;5.30;99.90;;;;;;5076889;28;20468;-84
2021/12/23 12:54:30;;;;;;;0.30;0.20;;;5.30;99.90;;;;;;5076685;28;20967;-84
2021/12/23 12:57:00;;;;;;;0.30;0.30;;;5.30;99.90;;;;;;5076712;28;20436;-84
2021/12/23 12:59:30;;;;;;;0.90;0.90;;;5.20;99.90;;;;;;5076504;28;20432;-84
2021/12/23 13:01:59;;;;;;;0.50;0.50;;;5.20;99.90;;;;;;5076634;28;20467;-85
2021/12/23 13:04:29;;;;;;;0.53;0.53;;;5.20;99.90;;;;;;5076661;28;20452;-84
2021/12/23 13:06:57;;;;;;;0.30;0.20;;;5.20;99.90;;;;;;5076243;28;20487;-84
2021/12/23 13:09:28;;;;;;;0.67;0.67;;;5.20;99.90;;;;;;5076533;28;20449;-84
2021/12/23 13:11:59;;;;;;;0.60;0.60;;;5.10;99.90;;;;;;5076426;28;20469;-85
2021/12/23 13:14:55;;;;;;;0.30;0.30;;;5.20;99.90;;;;;;5076371;28;20440;-85
2021/12/23 13:17:24;;;;;;;0.30;0.20;;;5.10;99.90;;;;;;5075949;28;20444;-84
2021/12/23 13:19:51;;;;;;;0.30;0.30;;;5.10;99.90;;;;;;5076022;28;20804;-85
2021/12/23 13:22:19;;;;;;;1.93;0.70;;;5.10;99.90;;;;;;5076189;28;20469;-84
2021/12/23 13:24:46;;;;;;;0.30;0.30;;;5.10;99.90;;;;;;5076453;28;20855;-85
2021/12/23 13:27:13;;;;;;;0.50;0.50;;;5.20;99.90;;;;;;5076159;28;20555;-84
2021/12/23 13:29:43;;;;;;;0.30;0.30;;;5.20;99.90;;;;;;5076046;28;20445;-84
2021/12/23 13:32:09;;;;;;;0.50;0.40;;;5.20;99.90;;;;;;5075613;28;20976;-85
2021/12/23 13:34:36;;;;;;;0.33;0.27;;;5.20;99.90;;;;;;5075820;28;20452;-84
2021/12/23 13:37:06;;;;;;;0.57;0.37;;;5.20;99.90;;;;;;5074919;28;20480;-84
2021/12/23 13:39:36;;;;;;;0.30;0.30;;;5.20;99.90;;;;;;5075869;28;20401;-85
2021/12/23 13:42:05;;;;;;;0.30;0.30;;;5.20;99.90;;;;;;5075885;28;20842;-84
2021/12/23 13:44:34;;;;;;;0.37;0.30;;;5.20;99.90;;;;;;5075380;28;20444;-84
2021/12/23 13:47:05;;;;;;;0.37;0.33;;;5.20;99.90;;;;;;5075763;28;20481;-85
2021/12/23 13:49:34;;;;;;;0.30;0.20;;;5.30;99.90;;;;;;5075844;28;20802;-85
2021/12/23 13:52:02;;;;;;;0.40;0.30;;;5.20;99.90;;;;;;5075396;28;20881;-85
2021/12/23 13:54:33;;;;;;;0.30;0.30;;;5.20;99.90;;;;;;5075504;28;20414;-85